Summit Avenue, New Jersey
Current Conditions -  °F | °C
As of 2:51 AM on Tuesday 21 Oct 2014 (Local Time) from KNYC Reporting Station
Clear Clear  
Wind Chill: 58°   Ceiling: Unl
Heat Index: 58°   Visibility: 10mi
Dew Point: 43°   Wind: 6mph
Humidity: 58%   Direction: 240°WSW
Pressure: 29.95"   Gusts: NA
Location:  40.7693°N, 74.0322°W
Report Text: KNYC 210651Z AUTO 24005KT 10SM CLR 14/06 A2995 RMK AO2 SLP132 T01440061 $
Loading
Personal Weather Stations






























Interactive Weather Map
Tropical Storm Tracking
New forecast layout! Learn more

10-Day Weather Forecast

Advertisements
Track Severe Weather on mobile